sensor_id;sensor_type;location;lat;lon;timestamp;temperature;humidity
19906;DHT22;10115;50.906;4.438;2023-12-20T00:00:58;6.20;99.90
19906;DHT22;10115;50.906;4.438;2023-12-20T00:03:24;6.20;99.90
19906;DHT22;10115;50.906;4.438;2023-12-20T00:05:50;6.20;99.90
19906;DHT22;10115;50.906;4.438;2023-12-20T00:08:16;6.20;99.90
19906;DHT22;10115;50.906;4.438;2023-12-20T00:10:42;6.20;99.90
19906;DHT22;10115;50.906;4.438;2023-12-20T00:13:08;6.20;99.90
19906;DHT22;10115;50.906;4.438;2023-12-20T00:15:34;6.20;99.90
19906;DHT22;10115;50.906;4.438;2023-12-20T00:18:00;6.20;99.90
19906;DHT22;10115;50.906;4.438;2023-12-20T00:20:26;6.20;99.90
19906;DHT22;10115;50.906;4.438;2023-12-20T00:22:54;6.20;99.90
19906;DHT22;10115;50.906;4.438;2023-12-20T00:25:20;6.20;99.90
19906;DHT22;10115;50.906;4.438;2023-12-20T00:27:45;6.20;99.90
19906;DHT22;10115;50.906;4.438;2023-12-20T00:30:11;6.20;99.90
19906;DHT22;10115;50.906;4.438;2023-12-20T00:32:37;6.10;99.90
19906;DHT22;10115;50.906;4.438;2023-12-20T00:35:02;6.10;99.90
19906;DHT22;10115;50.906;4.438;2023-12-20T00:37:28;6.10;99.90
19906;DHT22;10115;50.906;4.438;2023-12-20T00:39:54;6.10;99.90
19906;DHT22;10115;50.906;4.438;2023-12-20T00:42:19;6.10;99.90
19906;DHT22;10115;50.906;4.438;2023-12-20T00:44:45;6.00;99.90
19906;DHT22;10115;50.906;4.438;2023-12-20T00:47:11;6.00;99.90
19906;DHT22;10115;50.906;4.438;2023-12-20T00:49:36;5.90;99.90
19906;DHT22;10115;50.906;4.438;2023-12-20T00:52:02;5.90;99.90
19906;DHT22;10115;50.906;4.438;2023-12-20T00:54:28;5.80;99.90
19906;DHT22;10115;50.906;4.438;2023-12-20T00:56:55;5.90;99.90
19906;DHT22;10115;50.906;4.438;2023-12-20T00:59:20;5.90;99.90
19906;DHT22;10115;50.906;4.438;2023-12-20T01:01:46;5.80;99.90
19906;DHT22;10115;50.906;4.438;2023-12-20T01:04:11;5.80;99.90
19906;DHT22;10115;50.906;4.438;2023-12-20T01:06:37;5.70;99.90
19906;DHT22;10115;50.906;4.438;2023-12-20T01:09:03;5.70;99.90
19906;DHT22;10115;50.906;4.438;2023-12-20T01:11:28;5.70;99.90
19906;DHT22;10115;50.906;4.438;2023-12-20T01:13:54;5.70;99.90
19906;DHT22;10115;50.906;4.438;2023-12-20T01:16:19;5.70;99.90
19906;DHT22;10115;50.906;4.438;2023-12-20T01:18:45;5.70;99.90
19906;DHT22;10115;50.906;4.438;2023-12-20T01:21:11;5.70;99.90
19906;DHT22;10115;50.906;4.438;2023-12-20T01:23:36;5.70;99.90
19906;DHT22;10115;50.906;4.438;2023-12-20T01:26:02;5.80;99.90
19906;DHT22;10115;50.906;4.438;2023-12-20T01:28:31;5.70;99.90
19906;DHT22;10115;50.906;4.438;2023-12-20T01:30:57;5.70;99.90
19906;DHT22;10115;50.906;4.438;2023-12-20T01:33:23;5.80;99.90
19906;DHT22;10115;50.906;4.438;2023-12-20T01:35:49;5.80;99.90
19906;DHT22;10115;50.906;4.438;2023-12-20T01:38:14;5.80;99.90
19906;DHT22;10115;50.906;4.438;2023-12-20T01:40:40;5.70;99.90
19906;DHT22;10115;50.906;4.438;2023-12-20T01:43:09;5.70;99.90
19906;DHT22;10115;50.906;4.438;2023-12-20T01:45:35;5.70;99.90
19906;DHT22;10115;50.906;4.438;2023-12-20T01:48:01;5.60;99.90
19906;DHT22;10115;50.906;4.438;2023-12-20T01:50:28;5.60;99.90
19906;DHT22;10115;50.906;4.438;2023-12-20T01:52:55;5.60;99.90
19906;DHT22;10115;50.906;4.438;2023-12-20T01:55:26;5.60;99.90
19906;DHT22;10115;50.906;4.438;2023-12-20T01:57:53;5.60;99.90
19906;DHT22;10115;50.906;4.438;2023-12-20T02:00:19;5.60;99.90
19906;DHT22;10115;50.906;4.438;2023-12-20T02:02:50;5.60;99.90
19906;DHT22;10115;50.906;4.438;2023-12-20T02:05:16;5.60;99.90
19906;DHT22;10115;50.906;4.438;2023-12-20T02:07:42;5.60;99.90
19906;DHT22;10115;50.906;4.438;2023-12-20T02:10:08;5.60;99.90
19906;DHT22;10115;50.906;4.438;2023-12-20T02:12:33;5.60;99.90
19906;DHT22;10115;50.906;4.438;2023-12-20T02:14:59;5.60;99.90
19906;DHT22;10115;50.906;4.438;2023-12-20T02:17:26;5.60;99.90
19906;DHT22;10115;50.906;4.438;2023-12-20T02:19:53;5.50;99.90
19906;DHT22;10115;50.906;4.438;2023-12-20T02:22:18;5.60;99.90
19906;DHT22;10115;50.906;4.438;2023-12-20T02:24:44;5.60;99.90
19906;DHT22;10115;50.906;4.438;2023-12-20T02:27:09;5.60;99.90
19906;DHT22;10115;50.906;4.438;2023-12-20T02:29:36;5.60;99.90
19906;DHT22;10115;50.906;4.438;2023-12-20T02:32:01;5.60;99.90
19906;DHT22;10115;50.906;4.438;2023-12-20T02:34:27;5.60;99.90
19906;DHT22;10115;50.906;4.438;2023-12-20T02:36:53;5.60;99.90
19906;DHT22;10115;50.906;4.438;2023-12-20T02:39:19;5.60;99.90
19906;DHT22;10115;50.906;4.438;2023-12-20T02:41:45;5.70;99.90
19906;DHT22;10115;50.906;4.438;2023-12-20T02:44:11;5.70;99.90
19906;DHT22;10115;50.906;4.438;2023-12-20T02:46:36;5.70;99.90
19906;DHT22;10115;50.906;4.438;2023-12-20T02:49:02;5.60;99.90
19906;DHT22;10115;50.906;4.438;2023-12-20T02:51:27;5.60;99.90
19906;DHT22;10115;50.906;4.438;2023-12-20T02:53:53;5.60;99.90
19906;DHT22;10115;50.906;4.438;2023-12-20T02:56:19;5.60;99.90
19906;DHT22;10115;50.906;4.438;2023-12-20T02:58:44;5.60;99.90
19906;DHT22;10115;50.906;4.438;2023-12-20T03:01:10;5.60;99.90
19906;DHT22;10115;50.906;4.438;2023-12-20T03:03:35;5.60;99.90
19906;DHT22;10115;50.906;4.438;2023-12-20T03:06:01;5.70;99.90
19906;DHT22;10115;50.906;4.438;2023-12-20T03:08:27;5.70;99.90
19906;DHT22;10115;50.906;4.438;2023-12-20T03:10:52;5.80;99.90
19906;DHT22;10115;50.906;4.438;2023-12-20T03:13:19;5.70;99.90
19906;DHT22;10115;50.906;4.438;2023-12-20T03:15:45;5.80;99.90
19906;DHT22;10115;50.906;4.438;2023-12-20T03:18:11;5.80;99.90
19906;DHT22;10115;50.906;4.438;2023-12-20T03:20:37;5.80;99.90
19906;DHT22;10115;50.906;4.438;2023-12-20T03:23:03;5.80;99.90
19906;DHT22;10115;50.906;4.438;2023-12-20T03:25:29;5.80;99.90
19906;DHT22;10115;50.906;4.438;2023-12-20T03:27:55;5.80;99.90
19906;DHT22;10115;50.906;4.438;2023-12-20T03:30:20;5.80;99.90
19906;DHT22;10115;50.906;4.438;2023-12-20T03:32:47;5.80;99.90
19906;DHT22;10115;50.906;4.438;2023-12-20T03:35:12;5.80;99.90
19906;DHT22;10115;50.906;4.438;2023-12-20T03:37:38;5.90;99.90
19906;DHT22;10115;50.906;4.438;2023-12-20T03:40:04;5.90;99.90
19906;DHT22;10115;50.906;4.438;2023-12-20T03:42:30;5.90;99.90
19906;DHT22;10115;50.906;4.438;2023-12-20T03:44:56;5.90;99.90
19906;DHT22;10115;50.906;4.438;2023-12-20T03:47:22;6.00;99.90
19906;DHT22;10115;50.906;4.438;2023-12-20T03:49:48;6.00;99.90
19906;DHT22;10115;50.906;4.438;2023-12-20T03:52:13;6.00;99.90
19906;DHT22;10115;50.906;4.438;2023-12-20T03:54:40;6.00;99.90
19906;DHT22;10115;50.906;4.438;2023-12-20T03:57:07;6.00;99.90
19906;DHT22;10115;50.906;4.438;2023-12-20T03:59:37;6.10;99.90
19906;DHT22;10115;50.906;4.438;2023-12-20T04:02:03;6.10;99.90
19906;DHT22;10115;50.906;4.438;2023-12-20T04:04:29;6.10;99.90
19906;DHT22;10115;50.906;4.438;2023-12-20T04:06:54;6.10;99.90
19906;DHT22;10115;50.906;4.438;2023-12-20T04:09:20;6.20;99.90
19906;DHT22;10115;50.906;4.438;2023-12-20T04:11:45;6.20;99.90
19906;DHT22;10115;50.906;4.438;2023-12-20T04:14:11;6.20;99.90
19906;DHT22;10115;50.906;4.438;2023-12-20T04:16:37;6.10;99.90
19906;DHT22;10115;50.906;4.438;2023-12-20T04:19:02;6.20;99.90
19906;DHT22;10115;50.906;4.438;2023-12-20T04:21:28;6.10;99.90
19906;DHT22;10115;50.906;4.438;2023-12-20T04:23:54;6.10;99.90
19906;DHT22;10115;50.906;4.438;2023-12-20T04:26:19;6.10;99.90
19906;DHT22;10115;50.906;4.438;2023-12-20T04:28:45;6.00;99.90
19906;DHT22;10115;50.906;4.438;2023-12-20T04:31:10;5.90;99.90
19906;DHT22;10115;50.906;4.438;2023-12-20T04:33:36;5.90;99.90
19906;DHT22;10115;50.906;4.438;2023-12-20T04:36:02;5.90;99.90
19906;DHT22;10115;50.906;4.438;2023-12-20T04:38:27;5.80;99.90
19906;DHT22;10115;50.906;4.438;2023-12-20T04:40:53;5.80;99.90
19906;DHT22;10115;50.906;4.438;2023-12-20T04:43:18;5.90;99.90
19906;DHT22;10115;50.906;4.438;2023-12-20T04:45:44;5.90;99.90
19906;DHT22;10115;50.906;4.438;2023-12-20T04:48:10;6.00;99.90
19906;DHT22;10115;50.906;4.438;2023-12-20T04:50:35;6.00;99.90
19906;DHT22;10115;50.906;4.438;2023-12-20T04:53:01;5.90;99.90
19906;DHT22;10115;50.906;4.438;2023-12-20T04:55:27;6.00;99.90
19906;DHT22;10115;50.906;4.438;2023-12-20T04:57:52;6.00;99.90
19906;DHT22;10115;50.906;4.438;2023-12-20T05:00:18;6.00;99.90
19906;DHT22;10115;50.906;4.438;2023-12-20T05:02:43;5.90;99.90
19906;DHT22;10115;50.906;4.438;2023-12-20T05:05:09;5.90;99.90
19906;DHT22;10115;50.906;4.438;2023-12-20T05:07:35;5.90;99.90
19906;DHT22;10115;50.906;4.438;2023-12-20T05:10:00;5.90;99.90
19906;DHT22;10115;50.906;4.438;2023-12-20T05:12:26;6.00;99.90
19906;DHT22;10115;50.906;4.438;2023-12-20T05:14:52;5.90;99.90
19906;DHT22;10115;50.906;4.438;2023-12-20T05:17:18;5.90;99.90
19906;DHT22;10115;50.906;4.438;2023-12-20T05:19:45;5.80;99.90
19906;DHT22;10115;50.906;4.438;2023-12-20T05:22:11;5.80;99.90
19906;DHT22;10115;50.906;4.438;2023-12-20T05:24:37;5.80;99.90
19906;DHT22;10115;50.906;4.438;2023-12-20T05:27:03;5.80;99.90
19906;DHT22;10115;50.906;4.438;2023-12-20T05:29:28;5.70;99.90
19906;DHT22;10115;50.906;4.438;2023-12-20T05:31:54;5.60;99.90
19906;DHT22;10115;50.906;4.438;2023-12-20T05:34:19;5.70;99.90
19906;DHT22;10115;50.906;4.438;2023-12-20T05:36:46;5.60;99.90
19906;DHT22;10115;50.906;4.438;2023-12-20T05:39:11;5.60;99.90
19906;DHT22;10115;50.906;4.438;2023-12-20T05:41:37;5.60;99.90
19906;DHT22;10115;50.906;4.438;2023-12-20T05:44:03;5.60;99.90
19906;DHT22;10115;50.906;4.438;2023-12-20T05:46:28;5.60;99.90
19906;DHT22;10115;50.906;4.438;2023-12-20T05:48:54;5.70;99.90
19906;DHT22;10115;50.906;4.438;2023-12-20T05:51:20;5.50;99.90
19906;DHT22;10115;50.906;4.438;2023-12-20T05:53:45;5.50;99.90
19906;DHT22;10115;50.906;4.438;2023-12-20T05:56:11;5.50;99.90
19906;DHT22;10115;50.906;4.438;2023-12-20T05:58:38;5.60;99.90
19906;DHT22;10115;50.906;4.438;2023-12-20T06:01:04;5.50;99.90
19906;DHT22;10115;50.906;4.438;2023-12-20T06:03:30;5.50;99.90
19906;DHT22;10115;50.906;4.438;2023-12-20T06:05:56;5.50;99.90
19906;DHT22;10115;50.906;4.438;2023-12-20T06:08:21;5.50;99.90
19906;DHT22;10115;50.906;4.438;2023-12-20T06:10:47;5.40;99.90
19906;DHT22;10115;50.906;4.438;2023-12-20T06:13:13;5.50;99.90
19906;DHT22;10115;50.906;4.438;2023-12-20T06:15:39;5.40;99.90
19906;DHT22;10115;50.906;4.438;2023-12-20T06:18:06;5.40;99.90
19906;DHT22;10115;50.906;4.438;2023-12-20T06:20:32;5.40;99.90
19906;DHT22;10115;50.906;4.438;2023-12-20T06:22:58;5.40;99.90
19906;DHT22;10115;50.906;4.438;2023-12-20T06:25:23;5.50;99.90
19906;DHT22;10115;50.906;4.438;2023-12-20T06:27:49;5.50;99.90
19906;DHT22;10115;50.906;4.438;2023-12-20T06:30:16;5.50;99.90
19906;DHT22;10115;50.906;4.438;2023-12-20T06:32:42;5.50;99.90
19906;DHT22;10115;50.906;4.438;2023-12-20T06:35:08;5.50;99.90
19906;DHT22;10115;50.906;4.438;2023-12-20T06:37:34;5.50;99.90
19906;DHT22;10115;50.906;4.438;2023-12-20T06:40:00;5.50;99.90
19906;DHT22;10115;50.906;4.438;2023-12-20T06:42:26;5.50;99.90
19906;DHT22;10115;50.906;4.438;2023-12-20T06:44:52;5.50;99.90
19906;DHT22;10115;50.906;4.438;2023-12-20T06:47:18;5.50;99.90
19906;DHT22;10115;50.906;4.438;2023-12-20T06:49:43;5.50;99.90
19906;DHT22;10115;50.906;4.438;2023-12-20T06:52:09;5.40;99.90
19906;DHT22;10115;50.906;4.438;2023-12-20T06:54:35;5.40;99.90
19906;DHT22;10115;50.906;4.438;2023-12-20T06:57:01;5.40;99.90
19906;DHT22;10115;50.906;4.438;2023-12-20T06:59:28;5.40;99.90
19906;DHT22;10115;50.906;4.438;2023-12-20T07:01:54;5.30;99.90
19906;DHT22;10115;50.906;4.438;2023-12-20T07:04:20;5.30;99.90
19906;DHT22;10115;50.906;4.438;2023-12-20T07:06:50;5.30;99.90
19906;DHT22;10115;50.906;4.438;2023-12-20T07:09:22;5.20;99.90
19906;DHT22;10115;50.906;4.438;2023-12-20T07:11:48;5.20;99.90
19906;DHT22;10115;50.906;4.438;2023-12-20T07:14:14;5.20;99.90
19906;DHT22;10115;50.906;4.438;2023-12-20T07:16:40;5.20;99.90
19906;DHT22;10115;50.906;4.438;2023-12-20T07:19:06;5.20;99.90
19906;DHT22;10115;50.906;4.438;2023-12-20T07:21:31;5.20;99.90
19906;DHT22;10115;50.906;4.438;2023-12-20T07:23:57;5.10;99.90
19906;DHT22;10115;50.906;4.438;2023-12-20T07:26:23;5.10;99.90
19906;DHT22;10115;50.906;4.438;2023-12-20T07:28:49;5.10;99.90
19906;DHT22;10115;50.906;4.438;2023-12-20T07:31:18;5.10;99.90
19906;DHT22;10115;50.906;4.438;2023-12-20T07:33:44;5.10;99.90
19906;DHT22;10115;50.906;4.438;2023-12-20T07:36:09;5.20;99.90
19906;DHT22;10115;50.906;4.438;2023-12-20T07:38:35;5.00;99.90
19906;DHT22;10115;50.906;4.438;2023-12-20T07:41:01;5.00;99.90
19906;DHT22;10115;50.906;4.438;2023-12-20T07:43:26;5.00;99.90
19906;DHT22;10115;50.906;4.438;2023-12-20T07:45:52;5.00;99.90
19906;DHT22;10115;50.906;4.438;2023-12-20T07:48:18;5.00;99.90
19906;DHT22;10115;50.906;4.438;2023-12-20T07:50:43;5.00;99.90
19906;DHT22;10115;50.906;4.438;2023-12-20T07:53:09;5.00;99.90
19906;DHT22;10115;50.906;4.438;2023-12-20T07:55:34;5.00;99.90
19906;DHT22;10115;50.906;4.438;2023-12-20T07:58:00;5.00;99.90
19906;DHT22;10115;50.906;4.438;2023-12-20T08:00:26;5.00;99.90
19906;DHT22;10115;50.906;4.438;2023-12-20T08:02:52;4.90;99.90
19906;DHT22;10115;50.906;4.438;2023-12-20T08:05:17;4.90;99.90
19906;DHT22;10115;50.906;4.438;2023-12-20T08:07:43;4.90;99.90
19906;DHT22;10115;50.906;4.438;2023-12-20T08:10:09;4.90;99.90
19906;DHT22;10115;50.906;4.438;2023-12-20T08:12:34;4.90;99.90
19906;DHT22;10115;50.906;4.438;2023-12-20T08:15:01;5.00;99.90
19906;DHT22;10115;50.906;4.438;2023-12-20T08:17:26;4.90;99.90
19906;DHT22;10115;50.906;4.438;2023-12-20T08:19:52;5.00;99.90
19906;DHT22;10115;50.906;4.438;2023-12-20T08:22:18;5.00;99.90
19906;DHT22;10115;50.906;4.438;2023-12-20T08:24:43;5.00;99.90
19906;DHT22;10115;50.906;4.438;2023-12-20T08:27:09;5.00;99.90
19906;DHT22;10115;50.906;4.438;2023-12-20T08:29:35;5.10;99.90
19906;DHT22;10115;50.906;4.438;2023-12-20T08:32:01;5.20;99.90
19906;DHT22;10115;50.906;4.438;2023-12-20T08:34:27;5.30;99.90
19906;DHT22;10115;50.906;4.438;2023-12-20T08:36:53;5.30;99.90
19906;DHT22;10115;50.906;4.438;2023-12-20T08:39:19;5.30;99.90
19906;DHT22;10115;50.906;4.438;2023-12-20T08:41:45;5.40;99.90
19906;DHT22;10115;50.906;4.438;2023-12-20T08:44:10;5.40;99.90
19906;DHT22;10115;50.906;4.438;2023-12-20T08:46:36;5.40;99.90
19906;DHT22;10115;50.906;4.438;2023-12-20T08:49:02;5.30;99.90
19906;DHT22;10115;50.906;4.438;2023-12-20T08:51:28;5.30;99.90
19906;DHT22;10115;50.906;4.438;2023-12-20T08:53:54;5.30;99.90
19906;DHT22;10115;50.906;4.438;2023-12-20T08:56:20;5.30;99.90
19906;DHT22;10115;50.906;4.438;2023-12-20T08:58:46;5.30;99.90
19906;DHT22;10115;50.906;4.438;2023-12-20T09:01:13;5.30;99.90
19906;DHT22;10115;50.906;4.438;2023-12-20T09:03:39;5.40;99.90
19906;DHT22;10115;50.906;4.438;2023-12-20T09:06:05;5.40;99.90
19906;DHT22;10115;50.906;4.438;2023-12-20T09:08:31;5.50;99.90
19906;DHT22;10115;50.906;4.438;2023-12-20T09:10:56;5.50;99.90
19906;DHT22;10115;50.906;4.438;2023-12-20T09:13:22;5.50;99.90
19906;DHT22;10115;50.906;4.438;2023-12-20T09:15:56;5.60;99.90
19906;DHT22;10115;50.906;4.438;2023-12-20T09:18:22;5.50;99.90
19906;DHT22;10115;50.906;4.438;2023-12-20T09:20:47;5.60;99.90
19906;DHT22;10115;50.906;4.438;2023-12-20T09:23:13;5.60;99.90
19906;DHT22;10115;50.906;4.438;2023-12-20T09:25:39;5.60;99.90
19906;DHT22;10115;50.906;4.438;2023-12-20T09:28:04;5.70;99.90
19906;DHT22;10115;50.906;4.438;2023-12-20T09:30:30;5.70;99.90
19906;DHT22;10115;50.906;4.438;2023-12-20T09:32:57;5.70;99.90
19906;DHT22;10115;50.906;4.438;2023-12-20T09:35:23;5.70;99.90
19906;DHT22;10115;50.906;4.438;2023-12-20T09:37:49;5.80;99.90
19906;DHT22;10115;50.906;4.438;2023-12-20T09:40:18;5.80;99.90
19906;DHT22;10115;50.906;4.438;2023-12-20T09:45:20;5.90;99.90
19906;DHT22;10115;50.906;4.438;2023-12-20T09:47:48;6.00;99.90
19906;DHT22;10115;50.906;4.438;2023-12-20T09:50:14;6.10;99.90
19906;DHT22;10115;50.906;4.438;2023-12-20T09:52:40;6.20;99.90
19906;DHT22;10115;50.906;4.438;2023-12-20T09:55:07;6.30;99.90
19906;DHT22;10115;50.906;4.438;2023-12-20T09:57:33;6.30;99.90
19906;DHT22;10115;50.906;4.438;2023-12-20T09:59:59;6.40;99.90
19906;DHT22;10115;50.906;4.438;2023-12-20T10:02:25;6.40;99.90
19906;DHT22;10115;50.906;4.438;2023-12-20T10:04:55;6.30;99.90
19906;DHT22;10115;50.906;4.438;2023-12-20T10:07:21;6.40;99.90
19906;DHT22;10115;50.906;4.438;2023-12-20T10:09:48;6.50;99.90
19906;DHT22;10115;50.906;4.438;2023-12-20T10:12:14;6.50;99.90
19906;DHT22;10115;50.906;4.438;2023-12-20T10:14:40;6.60;99.90
19906;DHT22;10115;50.906;4.438;2023-12-20T10:17:06;6.70;99.90
19906;DHT22;10115;50.906;4.438;2023-12-20T10:19:32;6.80;99.90
19906;DHT22;10115;50.906;4.438;2023-12-20T10:22:03;6.90;99.90
19906;DHT22;10115;50.906;4.438;2023-12-20T10:24:29;6.90;99.90
19906;DHT22;10115;50.906;4.438;2023-12-20T10:27:05;6.90;99.90
19906;DHT22;10115;50.906;4.438;2023-12-20T10:29:32;7.00;99.90
19906;DHT22;10115;50.906;4.438;2023-12-20T10:31:58;7.00;99.90
19906;DHT22;10115;50.906;4.438;2023-12-20T10:34:24;7.00;99.90
19906;DHT22;10115;50.906;4.438;2023-12-20T10:36:49;7.00;99.90
19906;DHT22;10115;50.906;4.438;2023-12-20T10:39:17;7.00;99.90
19906;DHT22;10115;50.906;4.438;2023-12-20T10:41:43;7.10;99.90
19906;DHT22;10115;50.906;4.438;2023-12-20T10:44:10;7.20;99.90
19906;DHT22;10115;50.906;4.438;2023-12-20T10:46:37;7.20;99.90
19906;DHT22;10115;50.906;4.438;2023-12-20T10:49:06;7.20;99.90
19906;DHT22;10115;50.906;4.438;2023-12-20T10:51:33;7.30;99.90
19906;DHT22;10115;50.906;4.438;2023-12-20T10:53:59;7.40;99.90
19906;DHT22;10115;50.906;4.438;2023-12-20T10:56:25;7.40;99.90
19906;DHT22;10115;50.906;4.438;2023-12-20T10:58:56;7.50;99.90
19906;DHT22;10115;50.906;4.438;2023-12-20T11:01:23;7.50;99.90
19906;DHT22;10115;50.906;4.438;2023-12-20T11:03:51;7.50;99.90
19906;DHT22;10115;50.906;4.438;2023-12-20T11:06:47;7.50;99.90
19906;DHT22;10115;50.906;4.438;2023-12-20T11:09:31;7.60;99.90
19906;DHT22;10115;50.906;4.438;2023-12-20T11:12:15;7.50;99.90
19906;DHT22;10115;50.906;4.438;2023-12-20T11:14:53;7.60;99.90
19906;DHT22;10115;50.906;4.438;2023-12-20T11:17:21;7.60;99.90
19906;DHT22;10115;50.906;4.438;2023-12-20T11:22:21;7.60;99.90
19906;DHT22;10115;50.906;4.438;2023-12-20T11:24:48;7.60;99.90
19906;DHT22;10115;50.906;4.438;2023-12-20T11:27:14;7.60;99.90
19906;DHT22;10115;50.906;4.438;2023-12-20T11:29:41;7.50;99.90
19906;DHT22;10115;50.906;4.438;2023-12-20T11:34:57;7.50;99.90
19906;DHT22;10115;50.906;4.438;2023-12-20T11:37:33;7.60;99.90
19906;DHT22;10115;50.906;4.438;2023-12-20T11:40:06;7.50;99.90
19906;DHT22;10115;50.906;4.438;2023-12-20T11:42:39;7.60;99.90
19906;DHT22;10115;50.906;4.438;2023-12-20T11:45:08;7.60;99.90
19906;DHT22;10115;50.906;4.438;2023-12-20T11:47:34;7.60;99.90
19906;DHT22;10115;50.906;4.438;2023-12-20T11:50:00;7.60;99.90
19906;DHT22;10115;50.906;4.438;2023-12-20T11:52:29;7.60;99.90
19906;DHT22;10115;50.906;4.438;2023-12-20T11:54:55;7.60;99.90
19906;DHT22;10115;50.906;4.438;2023-12-20T11:57:20;7.70;99.90
19906;DHT22;10115;50.906;4.438;2023-12-20T11:59:46;7.70;99.90
19906;DHT22;10115;50.906;4.438;2023-12-20T12:02:12;7.70;99.90
19906;DHT22;10115;50.906;4.438;2023-12-20T12:04:38;7.70;99.90
19906;DHT22;10115;50.906;4.438;2023-12-20T12:07:04;7.80;99.90
19906;DHT22;10115;50.906;4.438;2023-12-20T12:09:29;7.80;99.90
19906;DHT22;10115;50.906;4.438;2023-12-20T12:11:55;7.90;99.90
19906;DHT22;10115;50.906;4.438;2023-12-20T12:14:21;7.90;99.90
19906;DHT22;10115;50.906;4.438;2023-12-20T12:16:46;7.90;99.90
19906;DHT22;10115;50.906;4.438;2023-12-20T12:19:26;8.00;99.90
19906;DHT22;10115;50.906;4.438;2023-12-20T12:22:11;8.00;99.90
19906;DHT22;10115;50.906;4.438;2023-12-20T12:24:46;8.00;99.90
19906;DHT22;10115;50.906;4.438;2023-12-20T12:27:13;8.00;99.90
19906;DHT22;10115;50.906;4.438;2023-12-20T12:29:39;8.00;99.90
19906;DHT22;10115;50.906;4.438;2023-12-20T12:32:09;8.00;99.90
19906;DHT22;10115;50.906;4.438;2023-12-20T12:34:35;8.00;99.90
19906;DHT22;10115;50.906;4.438;2023-12-20T12:37:01;8.10;99.90
19906;DHT22;10115;50.906;4.438;2023-12-20T12:39:27;8.10;99.90
19906;DHT22;10115;50.906;4.438;2023-12-20T12:41:55;8.10;99.90
19906;DHT22;10115;50.906;4.438;2023-12-20T12:44:21;8.10;99.90
19906;DHT22;10115;50.906;4.438;2023-12-20T12:46:49;8.10;99.90
19906;DHT22;10115;50.906;4.438;2023-12-20T12:49:22;8.20;99.90
19906;DHT22;10115;50.906;4.438;2023-12-20T12:51:47;8.20;99.90
19906;DHT22;10115;50.906;4.438;2023-12-20T12:54:13;8.20;99.90
19906;DHT22;10115;50.906;4.438;2023-12-20T12:56:41;8.20;99.90
19906;DHT22;10115;50.906;4.438;2023-12-20T12:59:07;8.20;99.90
19906;DHT22;10115;50.906;4.438;2023-12-20T13:01:32;8.20;99.90
19906;DHT22;10115;50.906;4.438;2023-12-20T13:03:58;8.30;99.90
19906;DHT22;10115;50.906;4.438;2023-12-20T13:06:23;8.20;99.90
19906;DHT22;10115;50.906;4.438;2023-12-20T13:08:49;8.20;99.90
19906;DHT22;10115;50.906;4.438;2023-12-20T13:11:15;8.20;99.90
19906;DHT22;10115;50.906;4.438;2023-12-20T13:13:41;8.10;99.90
19906;DHT22;10115;50.906;4.438;2023-12-20T13:16:07;8.00;99.90
19906;DHT22;10115;50.906;4.438;2023-12-20T13:18:33;8.00;99.90
19906;DHT22;10115;50.906;4.438;2023-12-20T13:20:58;8.00;99.90
19906;DHT22;10115;50.906;4.438;2023-12-20T13:23:24;8.10;99.90
19906;DHT22;10115;50.906;4.438;2023-12-20T13:25:50;8.10;99.90
19906;DHT22;10115;50.906;4.438;2023-12-20T13:28:15;8.30;99.90
19906;DHT22;10115;50.906;4.438;2023-12-20T13:30:41;8.30;99.90
19906;DHT22;10115;50.906;4.438;2023-12-20T13:33:07;8.30;99.90
19906;DHT22;10115;50.906;4.438;2023-12-20T13:35:33;8.30;99.90
19906;DHT22;10115;50.906;4.438;2023-12-20T13:38:00;8.40;99.90
19906;DHT22;10115;50.906;4.438;2023-12-20T13:40:26;8.40;99.90
19906;DHT22;10115;50.906;4.438;2023-12-20T13:42:52;8.40;99.90
19906;DHT22;10115;50.906;4.438;2023-12-20T13:45:18;8.40;99.90
19906;DHT22;10115;50.906;4.438;2023-12-20T13:47:44;8.50;99.90
19906;DHT22;10115;50.906;4.438;2023-12-20T13:50:09;8.50;99.90
19906;DHT22;10115;50.906;4.438;2023-12-20T13:52:35;8.50;99.90
19906;DHT22;10115;50.906;4.438;2023-12-20T13:55:01;8.50;99.90
19906;DHT22;10115;50.906;4.438;2023-12-20T13:57:27;8.50;99.90
19906;DHT22;10115;50.906;4.438;2023-12-20T13:59:55;8.50;99.90
19906;DHT22;10115;50.906;4.438;2023-12-20T14:02:22;8.60;99.90
19906;DHT22;10115;50.906;4.438;2023-12-20T14:04:48;8.60;99.90
19906;DHT22;10115;50.906;4.438;2023-12-20T14:07:13;8.60;99.90
19906;DHT22;10115;50.906;4.438;2023-12-20T14:09:40;8.60;99.90
19906;DHT22;10115;50.906;4.438;2023-12-20T14:12:13;8.60;99.90
19906;DHT22;10115;50.906;4.438;2023-12-20T14:14:38;8.60;99.90
19906;DHT22;10115;50.906;4.438;2023-12-20T14:17:04;8.60;99.90
19906;DHT22;10115;50.906;4.438;2023-12-20T14:19:32;8.60;99.90
19906;DHT22;10115;50.906;4.438;2023-12-20T14:21:58;8.60;99.90
19906;DHT22;10115;50.906;4.438;2023-12-20T14:24:27;8.60;99.90
19906;DHT22;10115;50.906;4.438;2023-12-20T14:26:52;8.60;99.90
19906;DHT22;10115;50.906;4.438;2023-12-20T14:29:18;8.60;99.90
19906;DHT22;10115;50.906;4.438;2023-12-20T14:31:44;8.70;99.90
19906;DHT22;10115;50.906;4.438;2023-12-20T14:34:10;8.70;99.90
19906;DHT22;10115;50.906;4.438;2023-12-20T14:36:36;8.80;99.90
19906;DHT22;10115;50.906;4.438;2023-12-20T14:39:03;8.80;99.90
19906;DHT22;10115;50.906;4.438;2023-12-20T14:41:30;8.80;99.90
19906;DHT22;10115;50.906;4.438;2023-12-20T14:43:55;8.80;99.90
19906;DHT22;10115;50.906;4.438;2023-12-20T14:46:21;8.80;99.90
19906;DHT22;10115;50.906;4.438;2023-12-20T14:48:47;8.80;99.90
19906;DHT22;10115;50.906;4.438;2023-12-20T14:51:13;8.80;99.90
19906;DHT22;10115;50.906;4.438;2023-12-20T14:53:39;8.80;99.90
19906;DHT22;10115;50.906;4.438;2023-12-20T14:56:05;8.80;99.90
19906;DHT22;10115;50.906;4.438;2023-12-20T14:58:31;8.80;99.90
19906;DHT22;10115;50.906;4.438;2023-12-20T15:00:58;8.80;99.90
19906;DHT22;10115;50.906;4.438;2023-12-20T15:03:23;8.80;99.90
19906;DHT22;10115;50.906;4.438;2023-12-20T15:05:49;8.80;99.90
19906;DHT22;10115;50.906;4.438;2023-12-20T15:08:15;8.80;99.90
19906;DHT22;10115;50.906;4.438;2023-12-20T15:10:41;8.80;99.90
19906;DHT22;10115;50.906;4.438;2023-12-20T15:13:07;8.80;99.90
19906;DHT22;10115;50.906;4.438;2023-12-20T15:15:32;8.80;99.90
19906;DHT22;10115;50.906;4.438;2023-12-20T15:17:59;8.80;99.90
19906;DHT22;10115;50.906;4.438;2023-12-20T15:20:25;8.80;99.90
19906;DHT22;10115;50.906;4.438;2023-12-20T15:22:50;8.90;99.90
19906;DHT22;10115;50.906;4.438;2023-12-20T15:25:16;8.80;99.90
19906;DHT22;10115;50.906;4.438;2023-12-20T15:27:50;8.80;99.90
19906;DHT22;10115;50.906;4.438;2023-12-20T15:30:19;8.80;99.90
19906;DHT22;10115;50.906;4.438;2023-12-20T15:32:45;8.90;99.90
19906;DHT22;10115;50.906;4.438;2023-12-20T15:35:11;8.80;99.90
19906;DHT22;10115;50.906;4.438;2023-12-20T15:37:38;8.90;99.90
19906;DHT22;10115;50.906;4.438;2023-12-20T15:40:07;8.90;99.90
19906;DHT22;10115;50.906;4.438;2023-12-20T15:42:32;8.80;99.90
19906;DHT22;10115;50.906;4.438;2023-12-20T15:45:04;8.90;99.90
19906;DHT22;10115;50.906;4.438;2023-12-20T15:47:30;8.90;99.90